createdAt,value
2017-05-19T00:01:07.174Z,99743.92
2017-05-19T00:03:40.640Z,99739.94
2017-05-19T00:06:14.768Z,99732.28
2017-05-19T00:08:49.594Z,99728.52
2017-05-19T00:11:24.527Z,99734.57
2017-05-19T00:14:01.852Z,99732.55
2017-05-19T00:16:33.942Z,99734.25
2017-05-19T00:19:07.084Z,99725.81
2017-05-19T00:21:42.261Z,99728.14
2017-05-19T00:24:18.473Z,99719.45
2017-05-19T00:26:50.899Z,99716.98
2017-05-19T00:29:24.194Z,99708.22
2017-05-19T00:31:59.533Z,99709.94
2017-05-19T00:34:31.708Z,99714.44
2017-05-19T00:37:07.765Z,99708.03
2017-05-19T00:39:43.929Z,99706.27
2017-05-19T00:42:18.561Z,99700.78
2017-05-19T00:44:52.967Z,99704.92
2017-05-19T00:47:26.485Z,99695.77
2017-05-19T00:49:58.817Z,99695.05
2017-05-19T00:52:33.926Z,99691.00
2017-05-19T00:55:10.347Z,99693.82
2017-05-19T00:57:42.207Z,99694.86
2017-05-19T01:00:14.095Z,99686.50
2017-05-19T01:02:54.425Z,99684.00
2017-05-19T01:05:27.007Z,99690.09
2017-05-19T01:07:59.681Z,99700.88
2017-05-19T01:10:36.165Z,99720.94
2017-05-19T01:13:08.860Z,99724.72
2017-05-19T01:15:44.456Z,99730.42
2017-05-19T01:18:16.522Z,99730.50
2017-05-19T01:20:55.510Z,99732.52
2017-05-19T01:23:28.517Z,99735.67
2017-05-19T01:26:04.154Z,99748.44
2017-05-19T01:28:38.769Z,99745.16
2017-05-19T01:31:13.209Z,99746.52
2017-05-19T01:33:48.089Z,99749.08
2017-05-19T01:36:19.246Z,99753.38
2017-05-19T01:38:55.459Z,99760.84
2017-05-19T01:41:26.771Z,99767.70
2017-05-19T01:44:02.665Z,99766.88
2017-05-19T01:46:35.989Z,99765.88
2017-05-19T01:49:07.925Z,99763.74
2017-05-19T01:51:40.317Z,99764.18
2017-05-19T02:14:48.387Z,99778.55
2017-05-19T02:17:23.095Z,99770.66
2017-05-19T02:19:56.590Z,99772.22
2017-05-19T02:22:29.608Z,99769.08
2017-05-19T02:25:06.189Z,99767.29
2017-05-19T02:27:42.027Z,99766.38
2017-05-19T02:30:13.867Z,99755.48
2017-05-19T02:32:47.035Z,99756.63
2017-05-19T02:35:23.704Z,99756.39
2017-05-19T02:37:56.099Z,99759.13
2017-05-19T02:40:27.598Z,99759.13
2017-05-19T02:42:58.195Z,99751.72
2017-05-19T02:45:31.394Z,99734.23
2017-05-19T02:48:02.293Z,99728.58
2017-05-19T02:50:38.133Z,99712.71
2017-05-19T02:53:11.326Z,99711.54
2017-05-19T02:55:43.555Z,99702.95
2017-05-19T02:58:17.464Z,99683.16
2017-05-19T03:00:49.162Z,99678.05
2017-05-19T03:03:24.291Z,99688.98
2017-05-19T03:05:56.650Z,99686.05
2017-05-19T03:08:29.439Z,99675.64
2017-05-19T03:11:02.868Z,99670.16
2017-05-19T03:13:39.241Z,99669.77
2017-05-19T03:16:16.732Z,99655.31
2017-05-19T03:18:48.781Z,99656.34
2017-05-19T03:21:21.417Z,99653.27
2017-05-19T03:23:55.773Z,99653.90
2017-05-19T03:26:31.011Z,99659.28
2017-05-19T03:29:07.196Z,99673.66
2017-05-19T03:31:39.904Z,99686.84
2017-05-19T03:34:09.523Z,99679.00
2017-05-19T03:36:42.999Z,99711.78
2017-05-19T03:39:18.879Z,99724.69
2017-05-19T03:41:53.806Z,99732.29
2017-05-19T03:44:30.238Z,99721.69
2017-05-19T03:47:05.116Z,99724.44
2017-05-19T03:49:39.712Z,99734.69
2017-05-19T03:52:10.653Z,99727.67
2017-05-19T03:54:45.111Z,99725.70
2017-05-19T03:57:22.050Z,99719.23
2017-05-19T03:59:56.465Z,99724.69
2017-05-19T04:02:32.574Z,99720.72
2017-05-19T04:05:05.065Z,99714.47
2017-05-19T04:07:37.351Z,99721.69
2017-05-19T04:10:10.784Z,99718.95
2017-05-19T04:12:46.377Z,99721.88
2017-05-19T04:15:20.763Z,99732.08
2017-05-19T04:17:54.338Z,99742.09
2017-05-19T04:20:27.329Z,99750.92
2017-05-19T04:22:58.438Z,99753.27
2017-05-19T04:25:31.617Z,99768.56
2017-05-19T04:28:05.172Z,99766.22
2017-05-19T04:30:45.741Z,99764.26
2017-05-19T04:33:19.963Z,99758.18
2017-05-19T04:35:50.875Z,99760.59
2017-05-19T04:38:22.639Z,99757.85
2017-05-19T04:40:57.340Z,99762.02
2017-05-19T04:43:33.678Z,99756.14
2017-05-19T04:46:06.975Z,99750.84
2017-05-19T04:48:43.005Z,99750.24
2017-05-19T04:51:18.670Z,99748.02
2017-05-19T04:53:52.597Z,99767.16
2017-05-19T04:56:26.932Z,99772.69
2017-05-19T04:59:00.061Z,99767.59
2017-05-19T05:01:40.254Z,99778.05
2017-05-19T05:04:18.136Z,99782.52
2017-05-19T05:06:51.425Z,99802.20
2017-05-19T05:09:27.140Z,99796.69
2017-05-19T05:12:01.371Z,99809.11
2017-05-19T05:14:46.030Z,99819.03
2017-05-19T05:17:23.458Z,99822.59
2017-05-19T05:19:57.685Z,99821.16
2017-05-19T05:22:37.617Z,99819.19
2017-05-19T05:25:09.264Z,99822.05
2017-05-19T05:27:41.245Z,99818.66
2017-05-19T05:30:16.857Z,99823.41
2017-05-19T05:32:53.940Z,99819.14
2017-05-19T05:35:31.257Z,99822.73
2017-05-19T05:38:07.911Z,99828.83
2017-05-19T05:40:39.243Z,99825.16
2017-05-19T05:43:08.321Z,99828.23
2017-05-19T05:45:43.585Z,99828.22
2017-05-19T05:48:16.205Z,99832.25
2017-05-19T05:50:53.119Z,99834.13
2017-05-19T05:53:26.028Z,99837.66
2017-05-19T05:55:57.785Z,99843.41
2017-05-19T05:58:31.850Z,99838.72
2017-05-19T06:01:05.102Z,99845.56
2017-05-19T06:03:40.652Z,99850.33
2017-05-19T06:06:12.919Z,99854.62
2017-05-19T06:08:45.586Z,99857.22
2017-05-19T06:11:19.088Z,99858.39
2017-05-19T06:13:51.380Z,99863.16
2017-05-19T06:16:21.348Z,99867.45
2017-05-19T06:18:54.077Z,99869.86
2017-05-19T06:21:27.360Z,99874.42
2017-05-19T06:24:00.516Z,99880.11
2017-05-19T06:26:35.141Z,99877.38
2017-05-19T06:29:08.927Z,99875.42
2017-05-19T06:31:44.119Z,99879.42
2017-05-19T06:34:15.465Z,99878.68
2017-05-19T06:36:48.353Z,99880.27
2017-05-19T06:39:27.048Z,99872.20
2017-05-19T06:42:02.141Z,99876.08
2017-05-19T06:44:36.725Z,99881.96
2017-05-19T06:47:11.625Z,99882.53
2017-05-19T06:49:53.902Z,99888.00
2017-05-19T06:52:29.316Z,99874.62
2017-05-19T06:55:03.726Z,99881.89
2017-05-19T06:57:38.997Z,99887.97
2017-05-19T07:00:10.911Z,99885.38
2017-05-19T07:02:42.465Z,99883.80
2017-05-19T07:05:18.295Z,99886.22
2017-05-19T07:07:51.910Z,99889.36
2017-05-19T07:10:29.211Z,99892.56
2017-05-19T07:13:02.706Z,99890.47
2017-05-19T07:15:38.817Z,99888.36
2017-05-19T07:18:10.640Z,99883.27
2017-05-19T07:20:43.386Z,99891.77
2017-05-19T07:23:14.876Z,99888.09
2017-05-19T07:25:48.974Z,99896.75
2017-05-19T07:28:22.645Z,99897.97
2017-05-19T07:30:58.300Z,99902.25
2017-05-19T07:33:30.748Z,99907.92
2017-05-19T07:36:02.366Z,99919.65
2017-05-19T07:38:38.225Z,99926.72
2017-05-19T07:41:12.097Z,99925.64
2017-05-19T07:43:45.027Z,99936.05
2017-05-19T07:46:16.596Z,99940.91
2017-05-19T07:48:49.934Z,99943.33
2017-05-19T07:51:22.320Z,99951.62
2017-05-19T07:53:55.582Z,99955.09
2017-05-19T07:56:30.004Z,99956.34
2017-05-19T07:59:02.228Z,99960.49
2017-05-19T08:01:35.855Z,99959.06
2017-05-19T08:04:09.361Z,99967.83
2017-05-19T08:06:42.553Z,99968.83
2017-05-19T08:09:18.425Z,99976.78
2017-05-19T08:11:54.202Z,99977.38
2017-05-19T08:14:28.153Z,99976.66
2017-05-19T08:17:01.363Z,99981.53
2017-05-19T08:19:32.672Z,99986.03
2017-05-19T08:22:06.728Z,99991.98
2017-05-19T08:24:41.525Z,99991.19
2017-05-19T08:27:15.161Z,100002.78
2017-05-19T08:29:47.806Z,100000.84
2017-05-19T08:32:20.555Z,100006.28
2017-05-19T08:34:53.157Z,100003.19
2017-05-19T08:37:25.875Z,99998.59
2017-05-19T08:39:58.232Z,100003.16
2017-05-19T08:42:30.694Z,100004.98
2017-05-19T08:45:07.257Z,100004.37
2017-05-19T08:47:39.783Z,99997.92
2017-05-19T08:50:13.512Z,99992.20
2017-05-19T08:52:46.692Z,99996.25
2017-05-19T08:55:18.501Z,99998.10
2017-05-19T08:57:53.030Z,99990.95
2017-05-19T09:00:25.244Z,99990.13
2017-05-19T09:02:58.385Z,99992.53
2017-05-19T09:05:33.514Z,99988.61
2017-05-19T09:08:06.279Z,99991.77
2017-05-19T09:10:40.965Z,99982.47
2017-05-19T09:13:14.032Z,99984.14
2017-05-19T09:15:48.066Z,99981.01
2017-05-19T09:18:19.689Z,99981.64
2017-05-19T09:20:54.324Z,99981.70
2017-05-19T09:23:28.567Z,99983.03
2017-05-19T09:26:02.363Z,99983.92
2017-05-19T09:28:34.278Z,99986.94
2017-05-19T09:31:05.550Z,99986.11
2017-05-19T09:33:39.903Z,99986.90
2017-05-19T09:36:11.714Z,99995.64
2017-05-19T09:38:44.434Z,99990.31
2017-05-19T09:41:18.457Z,99991.95
2017-05-19T09:43:51.893Z,99981.16
2017-05-19T09:46:24.812Z,99975.48
2017-05-19T09:48:58.482Z,99983.27
2017-05-19T09:51:33.613Z,99978.93
2017-05-19T09:54:08.155Z,99985.92
2017-05-19T09:56:42.801Z,99991.30
2017-05-19T09:59:18.177Z,99994.95
2017-05-19T10:01:53.436Z,99989.94
2017-05-19T10:04:29.103Z,99994.47
2017-05-19T10:07:01.782Z,99997.27
2017-05-19T10:09:35.117Z,99995.04
2017-05-19T10:12:09.862Z,99992.48
2017-05-19T10:14:43.617Z,99993.09
2017-05-19T10:17:15.374Z,99995.14
2017-05-19T10:19:48.793Z,99984.08
2017-05-19T10:22:22.571Z,99988.84
2017-05-19T10:24:54.878Z,99987.36
2017-05-19T10:27:31.168Z,99984.38
2017-05-19T10:30:09.903Z,99987.16
2017-05-19T10:32:42.099Z,99985.58
2017-05-19T10:35:18.168Z,99985.84
2017-05-19T10:37:52.678Z,99979.60
2017-05-19T10:40:26.054Z,99987.94
2017-05-19T10:42:59.893Z,99989.34
2017-05-19T10:45:36.481Z,99990.72
2017-05-19T10:48:08.976Z,99992.13
2017-05-19T10:50:41.798Z,99987.78
2017-05-19T10:53:13.989Z,99989.64
2017-05-19T10:55:47.456Z,99985.72
2017-05-19T10:58:22.768Z,99972.70
2017-05-19T11:00:56.136Z,99978.78
2017-05-19T11:03:30.837Z,99985.23
2017-05-19T11:06:03.797Z,99975.01
2017-05-19T11:08:41.083Z,99976.90
2017-05-19T11:11:15.706Z,99982.22
2017-05-19T11:13:48.765Z,99984.59
2017-05-19T11:16:20.184Z,99981.61
2017-05-19T11:18:52.874Z,99988.88
2017-05-19T11:21:25.303Z,99990.22
2017-05-19T11:23:58.090Z,99987.88
2017-05-19T11:26:30.805Z,99988.51
2017-05-19T11:29:06.048Z,99992.34
2017-05-19T11:31:37.730Z,100000.53
2017-05-19T11:34:17.753Z,100002.75
2017-05-19T11:36:51.223Z,99996.25
2017-05-19T11:39:23.433Z,100008.65
2017-05-19T11:41:58.396Z,100011.87
2017-05-19T11:44:31.523Z,100018.00
2017-05-19T11:47:04.614Z,100025.05
2017-05-19T11:49:40.321Z,100021.31
2017-05-19T11:52:12.435Z,100023.45
2017-05-19T11:54:45.073Z,100028.52
2017-05-19T11:57:16.586Z,100025.86
2017-05-19T11:59:50.172Z,100025.95
2017-05-19T12:02:24.104Z,100032.62
2017-05-19T12:04:55.486Z,100031.38
2017-05-19T12:07:30.291Z,100037.28
2017-05-19T12:10:13.884Z,100041.97
2017-05-19T12:12:48.684Z,100049.78
2017-05-19T12:15:21.803Z,100057.78
2017-05-19T12:17:53.136Z,100060.23
2017-05-19T12:20:22.205Z,100062.88
2017-05-19T12:22:59.797Z,100062.48
2017-05-19T12:25:32.230Z,100066.27
2017-05-19T12:28:05.626Z,100063.17
2017-05-19T12:30:40.573Z,100062.91
2017-05-19T12:33:17.000Z,100055.34
2017-05-19T12:35:51.536Z,100061.14
2017-05-19T12:38:23.707Z,100063.11
2017-05-19T12:40:57.457Z,100057.47
2017-05-19T12:43:30.176Z,100064.03
2017-05-19T12:45:59.228Z,100069.73
2017-05-19T12:48:30.458Z,100068.98
2017-05-19T12:51:00.476Z,100077.68
2017-05-19T12:53:35.610Z,100077.68
2017-05-19T12:56:08.124Z,100079.98
2017-05-19T12:58:44.693Z,100072.30
2017-05-19T13:01:14.124Z,100073.15
2017-05-19T13:03:48.059Z,100069.83
2017-05-19T13:06:24.151Z,100081.67
2017-05-19T13:08:57.764Z,100080.77
2017-05-19T13:11:31.800Z,100084.41
2017-05-19T13:14:03.608Z,100087.97
2017-05-19T13:16:38.077Z,100090.31
2017-05-19T13:19:13.672Z,100095.61
2017-05-19T13:21:47.663Z,100099.08
2017-05-19T13:24:22.026Z,100098.37
2017-05-19T13:26:56.647Z,100098.37
2017-05-19T13:29:31.584Z,100096.47
2017-05-19T13:32:03.782Z,100097.23
2017-05-19T13:34:38.592Z,100094.28
2017-05-19T13:37:12.338Z,100088.66
2017-05-19T13:39:44.695Z,100091.58
2017-05-19T13:42:15.700Z,100101.84
2017-05-19T13:44:52.219Z,100108.11
2017-05-19T13:47:26.664Z,100110.37
2017-05-19T13:50:04.725Z,100118.42
2017-05-19T13:52:37.283Z,100119.14
2017-05-19T13:55:10.084Z,100111.36
2017-05-19T13:57:42.914Z,100117.26
2017-05-19T14:00:16.450Z,100120.67
2017-05-19T14:02:50.926Z,100113.50
2017-05-19T14:05:23.826Z,100109.53
2017-05-19T14:07:55.705Z,100118.67
2017-05-19T14:10:30.225Z,100121.47
2017-05-19T14:13:00.582Z,100137.11
2017-05-19T14:15:36.235Z,100138.80
2017-05-19T14:18:12.165Z,100156.03
2017-05-19T14:20:46.189Z,100167.14
2017-05-19T14:23:18.835Z,100172.03
2017-05-19T14:25:50.884Z,100154.51
2017-05-19T14:28:26.427Z,100151.91
2017-05-19T14:31:01.558Z,100178.21
2017-05-19T14:33:34.405Z,100198.70
2017-05-19T14:36:07.709Z,100184.17
2017-05-19T14:38:40.685Z,100179.23
2017-05-19T14:41:16.864Z,100186.80
2017-05-19T14:43:49.870Z,100195.17
2017-05-19T14:46:20.501Z,100177.16
2017-05-19T14:48:55.220Z,100174.73
2017-05-19T14:51:25.397Z,100179.80
2017-05-19T14:53:56.909Z,100184.39
2017-05-19T14:56:30.175Z,100182.41
2017-05-19T14:59:03.509Z,100187.47
2017-05-19T15:01:35.258Z,100196.53
2017-05-19T15:04:11.453Z,100205.22
2017-05-19T15:06:46.385Z,100212.17
2017-05-19T15:09:22.554Z,100219.39
2017-05-19T15:11:55.780Z,100227.14
2017-05-19T15:14:29.468Z,100233.31
2017-05-19T15:17:03.213Z,100228.45
2017-05-19T15:19:35.585Z,100209.48
2017-05-19T15:22:04.889Z,100203.53
2017-05-19T15:24:36.973Z,100208.69
2017-05-19T15:27:10.812Z,100205.16
2017-05-19T15:29:45.589Z,100200.97
2017-05-19T15:32:18.274Z,100202.55
2017-05-19T15:34:50.660Z,100208.39
2017-05-19T15:37:23.943Z,100206.14
2017-05-19T15:39:55.192Z,100206.37
2017-05-19T15:42:26.192Z,100209.15
2017-05-19T15:44:59.927Z,100216.02
2017-05-19T15:47:29.008Z,100222.63
2017-05-19T15:49:58.118Z,100228.38
2017-05-19T15:52:31.602Z,100229.67
2017-05-19T15:55:01.669Z,100232.17
2017-05-19T15:57:30.733Z,100228.88
2017-05-19T15:59:59.816Z,100236.40
2017-05-19T16:02:30.125Z,100224.91
2017-05-19T16:04:59.189Z,100225.19
2017-05-19T16:07:33.925Z,100227.13
2017-05-19T16:10:07.497Z,100217.13
2017-05-19T16:12:40.362Z,100222.50
2017-05-19T16:15:09.462Z,100224.83
2017-05-19T16:17:38.526Z,100231.27
2017-05-19T16:20:07.619Z,100233.23
2017-05-19T16:22:36.695Z,100233.45
2017-05-19T16:25:06.521Z,100239.88
2017-05-19T16:27:36.375Z,100242.58
2017-05-19T16:30:05.434Z,100250.05
2017-05-19T16:32:34.490Z,100252.28
2017-05-19T16:35:04.388Z,100258.19
2017-05-19T16:37:36.278Z,100263.65
2017-05-19T16:40:09.417Z,100265.70
2017-05-19T16:42:40.948Z,100273.42
2017-05-19T16:45:10.257Z,100277.17
2017-05-19T16:47:39.320Z,100272.48
2017-05-19T16:50:08.683Z,100277.91
2017-05-19T16:52:37.768Z,100270.09
2017-05-19T16:55:08.578Z,100273.84
2017-05-19T16:57:39.488Z,100271.47
2017-05-19T17:00:09.566Z,100275.50
2017-05-19T17:02:40.261Z,100272.55
2017-05-19T17:05:09.312Z,100277.52
2017-05-19T17:07:38.390Z,100285.12
2017-05-19T17:10:07.558Z,100287.06
2017-05-19T17:12:36.618Z,100292.31
2017-05-19T17:15:12.443Z,100291.78
2017-05-19T17:17:41.569Z,100302.66
2017-05-19T17:20:15.316Z,100299.59
2017-05-19T17:22:45.352Z,100305.12
2017-05-19T17:25:14.639Z,100309.94
2017-05-19T17:27:43.729Z,100310.17
2017-05-19T17:30:12.792Z,100316.39
2017-05-19T17:32:41.852Z,100317.09
2017-05-19T17:35:12.014Z,100322.05
2017-05-19T17:37:41.069Z,100325.40
2017-05-19T17:40:10.758Z,100332.50
2017-05-19T17:42:41.043Z,100327.94
2017-05-19T17:45:10.113Z,100323.03
2017-05-19T17:47:39.928Z,100327.48
2017-05-19T17:50:09.947Z,100331.07
2017-05-19T17:52:39.791Z,100331.78
2017-05-19T17:55:09.270Z,100332.27
2017-05-19T17:57:39.081Z,100339.27
2017-05-19T18:00:09.972Z,100339.88
2017-05-19T18:02:41.098Z,100335.96
2017-05-19T18:05:11.709Z,100323.42
2017-05-19T18:07:49.388Z,100332.48
2017-05-19T18:10:26.109Z,100319.86
2017-05-19T18:12:55.733Z,100322.42
2017-05-19T18:15:30.039Z,100320.48
2017-05-19T18:18:04.620Z,100310.02
2017-05-19T18:20:41.753Z,100305.52
2017-05-19T18:23:16.245Z,100306.04
2017-05-19T18:25:48.290Z,100308.50
2017-05-19T18:28:22.050Z,100306.27
2017-05-19T18:30:58.706Z,100313.66
2017-05-19T18:33:33.248Z,100328.34
2017-05-19T18:36:06.918Z,100331.81
2017-05-19T18:38:42.694Z,100329.46
2017-05-19T18:41:15.051Z,100337.95
2017-05-19T18:43:49.056Z,100335.86
2017-05-19T18:46:22.002Z,100336.61
2017-05-19T18:48:52.189Z,100342.15
2017-05-19T18:51:25.405Z,100352.98
2017-05-19T18:53:59.981Z,100357.48
2017-05-19T18:56:32.106Z,100362.77
2017-05-19T18:59:05.029Z,100364.02
2017-05-19T19:01:35.731Z,100364.81
2017-05-19T19:04:07.047Z,100372.44
2017-05-19T19:06:39.520Z,100371.64
2017-05-19T19:09:15.096Z,100360.67
2017-05-19T19:11:51.561Z,100352.36
2017-05-19T19:14:24.987Z,100351.30
2017-05-19T19:17:00.728Z,100353.16
2017-05-19T19:19:29.808Z,100358.97
2017-05-19T19:22:05.868Z,100367.42
2017-05-19T19:24:38.161Z,100372.39
2017-05-19T19:27:12.441Z,100372.68
2017-05-19T19:29:44.847Z,100378.31
2017-05-19T19:32:21.013Z,100391.62
2017-05-19T19:34:50.107Z,100395.00
2017-05-19T19:37:19.195Z,100392.09
2017-05-19T19:39:52.306Z,100398.20
2017-05-19T19:42:23.168Z,100401.11
2017-05-19T19:44:56.540Z,100401.68
2017-05-19T19:47:28.660Z,100406.97
2017-05-19T19:49:59.883Z,100412.65
2017-05-19T19:52:33.554Z,100413.05
2017-05-19T19:55:08.614Z,100410.37
2017-05-19T19:57:40.253Z,100403.89
2017-05-19T20:00:14.295Z,100398.83
2017-05-19T20:02:46.467Z,100406.93
2017-05-19T20:05:17.924Z,100412.33
2017-05-19T20:07:51.196Z,100416.94
2017-05-19T20:10:26.307Z,100419.00
2017-05-19T20:12:58.424Z,100410.30
2017-05-19T20:15:33.581Z,100412.06
2017-05-19T20:18:06.306Z,100410.70
2017-05-19T20:20:37.951Z,100412.78
2017-05-19T20:23:13.486Z,100414.62
2017-05-19T20:25:45.331Z,100415.95
2017-05-19T20:28:19.880Z,100415.08
2017-05-19T20:30:53.295Z,100411.61
2017-05-19T20:33:25.669Z,100411.16
2017-05-19T20:35:59.776Z,100405.61
2017-05-19T20:38:32.108Z,100407.18
2017-05-19T20:41:04.846Z,100402.23
2017-05-19T20:43:37.103Z,100398.73
2017-05-19T20:46:11.677Z,100415.09
2017-05-19T20:48:44.330Z,100422.34
2017-05-19T20:51:17.975Z,100428.80
2017-05-19T20:53:51.779Z,100421.52
2017-05-19T20:56:24.464Z,100416.35
2017-05-19T20:59:00.273Z,100416.52
2017-05-19T21:01:34.406Z,100412.78
2017-05-19T21:04:06.733Z,100412.56
2017-05-19T21:06:38.517Z,100411.70
2017-05-19T21:09:11.376Z,100416.23
2017-05-19T21:11:43.971Z,100417.22
2017-05-19T21:14:17.617Z,100417.61
2017-05-19T21:16:51.548Z,100420.00
2017-05-19T21:19:25.798Z,100419.30
2017-05-19T21:21:59.392Z,100426.12
2017-05-19T21:24:33.114Z,100432.44
2017-05-19T21:27:06.106Z,100430.28
2017-05-19T21:29:39.195Z,100437.27
2017-05-19T21:32:12.938Z,100435.84
2017-05-19T21:34:49.352Z,100429.77
2017-05-19T21:37:24.560Z,100436.20
2017-05-19T21:39:59.800Z,100432.00
2017-05-19T21:42:32.764Z,100435.69
2017-05-19T21:45:08.046Z,100442.68
2017-05-19T21:47:40.609Z,100444.95
2017-05-19T21:50:15.534Z,100441.60
2017-05-19T21:52:49.333Z,100444.20
2017-05-19T21:55:24.088Z,100433.48
2017-05-19T21:57:55.855Z,100446.08
2017-05-19T22:00:28.634Z,100452.28
2017-05-19T22:03:02.228Z,100461.83
2017-05-19T22:05:38.476Z,100463.69
2017-05-19T22:08:11.495Z,100464.88
2017-05-19T22:10:46.999Z,100473.18
2017-05-19T22:13:22.006Z,100480.00
2017-05-19T22:15:58.325Z,100476.02
2017-05-19T22:18:32.957Z,100466.31
2017-05-19T22:21:04.836Z,100466.72
2017-05-19T22:23:37.500Z,100460.06
2017-05-19T22:26:14.482Z,100462.05
2017-05-19T22:28:48.743Z,100469.48
2017-05-19T22:31:22.153Z,100468.06
2017-05-19T22:33:53.215Z,100471.11
2017-05-19T22:36:26.104Z,100460.11
2017-05-19T22:39:01.519Z,100463.74
2017-05-19T22:41:33.220Z,100470.22
2017-05-19T22:44:10.535Z,100482.33
2017-05-19T22:46:41.643Z,100476.18
2017-05-19T22:49:13.920Z,100476.53
2017-05-19T22:51:48.321Z,100467.62
2017-05-19T22:54:20.603Z,100474.89
2017-05-19T22:56:57.293Z,100471.70
2017-05-19T22:59:31.060Z,100477.48
2017-05-19T23:02:07.137Z,100470.74
2017-05-19T23:04:43.282Z,100478.28
2017-05-19T23:07:15.908Z,100477.51
2017-05-19T23:09:51.962Z,100481.69
2017-05-19T23:12:24.447Z,100495.44
2017-05-19T23:14:58.922Z,100499.53
2017-05-19T23:17:33.584Z,100500.90
2017-05-19T23:20:06.654Z,100501.03
2017-05-19T23:22:41.877Z,100504.36
2017-05-19T23:25:15.663Z,100512.30
2017-05-19T23:27:48.578Z,100509.54
2017-05-19T23:30:25.066Z,100509.74
2017-05-19T23:32:58.495Z,100515.99
2017-05-19T23:35:32.888Z,100507.87
2017-05-19T23:38:06.175Z,100510.44
2017-05-19T23:40:39.752Z,100505.62
2017-05-19T23:43:14.046Z,100508.34
2017-05-19T23:45:46.906Z,100508.21
2017-05-19T23:48:18.420Z,100515.33
2017-05-19T23:50:49.184Z,100509.28
2017-05-19T23:53:22.065Z,100518.66
2017-05-19T23:55:54.828Z,100517.80
2017-05-19T23:58:28.628Z,100520.62
